sensor_id;sensor_type;location;lat;lon;timestamp;temperature;humidity
75500;DHT22;64076;51.466;7.260;2022-12-07T00:01:21;20.30;37.40
75500;DHT22;64076;51.466;7.260;2022-12-07T00:03:48;20.30;37.40
75500;DHT22;64076;51.466;7.260;2022-12-07T00:06:15;20.30;37.40
75500;DHT22;64076;51.466;7.260;2022-12-07T00:08:42;20.30;37.40
75500;DHT22;64076;51.466;7.260;2022-12-07T00:11:16;20.30;37.40
75500;DHT22;64076;51.466;7.260;2022-12-07T00:13:43;20.30;37.40
75500;DHT22;64076;51.466;7.260;2022-12-07T00:16:12;20.30;37.40
75500;DHT22;64076;51.466;7.260;2022-12-07T00:18:38;20.30;37.40
75500;DHT22;64076;51.466;7.260;2022-12-07T00:21:16;20.30;37.40
75500;DHT22;64076;51.466;7.260;2022-12-07T00:23:43;20.30;37.40
75500;DHT22;64076;51.466;7.260;2022-12-07T00:26:13;20.30;37.30
75500;DHT22;64076;51.466;7.260;2022-12-07T00:28:40;20.30;37.40
75500;DHT22;64076;51.466;7.260;2022-12-07T00:31:08;20.30;37.30
75500;DHT22;64076;51.466;7.260;2022-12-07T00:33:34;20.30;37.30
75500;DHT22;64076;51.466;7.260;2022-12-07T00:36:01;20.30;37.40
75500;DHT22;64076;51.466;7.260;2022-12-07T00:38:29;20.30;37.40
75500;DHT22;64076;51.466;7.260;2022-12-07T00:41:00;20.30;37.30
75500;DHT22;64076;51.466;7.260;2022-12-07T00:43:26;20.30;37.30
75500;DHT22;64076;51.466;7.260;2022-12-07T00:45:52;20.30;37.30
75500;DHT22;64076;51.466;7.260;2022-12-07T00:48:18;20.30;37.30
75500;DHT22;64076;51.466;7.260;2022-12-07T00:50:44;20.30;37.30
75500;DHT22;64076;51.466;7.260;2022-12-07T00:53:09;20.30;37.30
75500;DHT22;64076;51.466;7.260;2022-12-07T00:55:36;20.30;37.30
75500;DHT22;64076;51.466;7.260;2022-12-07T00:58:02;20.30;37.30
75500;DHT22;64076;51.466;7.260;2022-12-07T01:00:28;20.30;37.30
75500;DHT22;64076;51.466;7.260;2022-12-07T01:02:53;20.30;37.30
75500;DHT22;64076;51.466;7.260;2022-12-07T01:05:19;20.30;37.30
75500;DHT22;64076;51.466;7.260;2022-12-07T01:07:44;20.30;37.30
75500;DHT22;64076;51.466;7.260;2022-12-07T01:10:12;20.30;37.30
75500;DHT22;64076;51.466;7.260;2022-12-07T01:12:37;20.30;37.30
75500;DHT22;64076;51.466;7.260;2022-12-07T01:15:03;20.30;37.30
75500;DHT22;64076;51.466;7.260;2022-12-07T01:17:29;20.30;37.30
75500;DHT22;64076;51.466;7.260;2022-12-07T01:19:54;20.30;37.30
75500;DHT22;64076;51.466;7.260;2022-12-07T01:22:20;20.30;37.30
75500;DHT22;64076;51.466;7.260;2022-12-07T01:24:45;20.30;37.30
75500;DHT22;64076;51.466;7.260;2022-12-07T01:27:12;20.30;37.30
75500;DHT22;64076;51.466;7.260;2022-12-07T01:29:38;20.30;37.30
75500;DHT22;64076;51.466;7.260;2022-12-07T01:32:03;20.30;37.30
75500;DHT22;64076;51.466;7.260;2022-12-07T01:34:29;20.30;37.30
75500;DHT22;64076;51.466;7.260;2022-12-07T01:36:55;20.30;37.30
75500;DHT22;64076;51.466;7.260;2022-12-07T01:39:20;20.30;37.30
75500;DHT22;64076;51.466;7.260;2022-12-07T01:41:46;20.30;37.30
75500;DHT22;64076;51.466;7.260;2022-12-07T01:44:24;20.30;37.30
75500;DHT22;64076;51.466;7.260;2022-12-07T01:46:55;20.30;37.30
75500;DHT22;64076;51.466;7.260;2022-12-07T01:49:31;20.30;37.30
75500;DHT22;64076;51.466;7.260;2022-12-07T01:52:30;20.30;37.30
75500;DHT22;64076;51.466;7.260;2022-12-07T01:55:01;20.30;37.30
75500;DHT22;64076;51.466;7.260;2022-12-07T01:57:28;20.30;37.30
75500;DHT22;64076;51.466;7.260;2022-12-07T01:59:55;20.30;37.30
75500;DHT22;64076;51.466;7.260;2022-12-07T02:02:33;20.30;37.30
75500;DHT22;64076;51.466;7.260;2022-12-07T02:05:02;20.30;37.40
75500;DHT22;64076;51.466;7.260;2022-12-07T02:07:28;20.30;37.30
75500;DHT22;64076;51.466;7.260;2022-12-07T02:09:54;20.30;37.40
75500;DHT22;64076;51.466;7.260;2022-12-07T02:12:22;20.30;37.30
75500;DHT22;64076;51.466;7.260;2022-12-07T02:14:49;20.30;37.40
75500;DHT22;64076;51.466;7.260;2022-12-07T02:17:24;20.30;37.40
75500;DHT22;64076;51.466;7.260;2022-12-07T02:22:43;20.30;37.30
75500;DHT22;64076;51.466;7.260;2022-12-07T02:30:48;20.30;37.40
75500;DHT22;64076;51.466;7.260;2022-12-07T02:33:24;20.20;37.30
75500;DHT22;64076;51.466;7.260;2022-12-07T02:35:57;20.30;37.40
75500;DHT22;64076;51.466;7.260;2022-12-07T02:41:09;20.30;37.40
75500;DHT22;64076;51.466;7.260;2022-12-07T02:43:41;20.30;37.40
75500;DHT22;64076;51.466;7.260;2022-12-07T02:46:11;20.30;37.40
75500;DHT22;64076;51.466;7.260;2022-12-07T02:48:39;20.30;37.40
75500;DHT22;64076;51.466;7.260;2022-12-07T02:51:06;20.20;37.40
75500;DHT22;64076;51.466;7.260;2022-12-07T02:53:40;20.20;37.40
75500;DHT22;64076;51.466;7.260;2022-12-07T03:07:20;20.20;37.40
75500;DHT22;64076;51.466;7.260;2022-12-07T03:12:48;20.30;37.40
75500;DHT22;64076;51.466;7.260;2022-12-07T03:15:27;20.20;37.40
75500;DHT22;64076;51.466;7.260;2022-12-07T03:17:56;20.20;37.40
75500;DHT22;64076;51.466;7.260;2022-12-07T03:20:24;20.20;37.40
75500;DHT22;64076;51.466;7.260;2022-12-07T03:22:51;20.20;37.40
75500;DHT22;64076;51.466;7.260;2022-12-07T03:25:18;20.20;37.40
75500;DHT22;64076;51.466;7.260;2022-12-07T03:27:49;20.20;37.40
75500;DHT22;64076;51.466;7.260;2022-12-07T03:30:29;20.20;37.40
75500;DHT22;64076;51.466;7.260;2022-12-07T03:33:01;20.20;37.40
75500;DHT22;64076;51.466;7.260;2022-12-07T03:35:39;20.20;37.40
75500;DHT22;64076;51.466;7.260;2022-12-07T03:38:27;20.20;37.40
75500;DHT22;64076;51.466;7.260;2022-12-07T03:41:06;20.20;37.40
75500;DHT22;64076;51.466;7.260;2022-12-07T03:43:34;20.20;37.40
75500;DHT22;64076;51.466;7.260;2022-12-07T03:51:39;20.20;37.40
75500;DHT22;64076;51.466;7.260;2022-12-07T03:54:32;20.20;37.40
75500;DHT22;64076;51.466;7.260;2022-12-07T03:57:01;20.20;37.40
75500;DHT22;64076;51.466;7.260;2022-12-07T03:59:28;20.20;37.40
75500;DHT22;64076;51.466;7.260;2022-12-07T04:01:56;20.20;37.40
75500;DHT22;64076;51.466;7.260;2022-12-07T04:04:23;20.20;37.40
75500;DHT22;64076;51.466;7.260;2022-12-07T04:06:49;20.20;37.40
75500;DHT22;64076;51.466;7.260;2022-12-07T04:09:15;20.20;37.30
75500;DHT22;64076;51.466;7.260;2022-12-07T04:11:42;20.20;37.30
75500;DHT22;64076;51.466;7.260;2022-12-07T04:14:07;20.20;37.30
75500;DHT22;64076;51.466;7.260;2022-12-07T04:16:56;20.20;37.30
75500;DHT22;64076;51.466;7.260;2022-12-07T04:19:32;20.20;37.30
75500;DHT22;64076;51.466;7.260;2022-12-07T04:22:00;20.20;37.30
75500;DHT22;64076;51.466;7.260;2022-12-07T04:24:26;20.20;37.30
75500;DHT22;64076;51.466;7.260;2022-12-07T04:26:52;20.20;37.30
75500;DHT22;64076;51.466;7.260;2022-12-07T04:29:18;20.20;37.30
75500;DHT22;64076;51.466;7.260;2022-12-07T04:31:44;20.20;37.30
75500;DHT22;64076;51.466;7.260;2022-12-07T04:34:10;20.20;37.30
75500;DHT22;64076;51.466;7.260;2022-12-07T04:36:37;20.20;37.30
75500;DHT22;64076;51.466;7.260;2022-12-07T04:39:04;20.20;37.20
75500;DHT22;64076;51.466;7.260;2022-12-07T04:41:30;20.20;37.20
75500;DHT22;64076;51.466;7.260;2022-12-07T04:44:03;20.20;37.20
75500;DHT22;64076;51.466;7.260;2022-12-07T04:46:32;20.20;37.20
75500;DHT22;64076;51.466;7.260;2022-12-07T04:48:58;20.20;37.20
75500;DHT22;64076;51.466;7.260;2022-12-07T04:51:27;20.20;37.20
75500;DHT22;64076;51.466;7.260;2022-12-07T04:53:53;20.20;37.20
75500;DHT22;64076;51.466;7.260;2022-12-07T04:56:20;20.20;37.20
75500;DHT22;64076;51.466;7.260;2022-12-07T04:58:47;20.20;37.20
75500;DHT22;64076;51.466;7.260;2022-12-07T05:01:14;20.20;37.20
75500;DHT22;64076;51.466;7.260;2022-12-07T05:03:40;20.20;37.20
75500;DHT22;64076;51.466;7.260;2022-12-07T05:06:06;20.20;37.20
75500;DHT22;64076;51.466;7.260;2022-12-07T05:08:32;20.20;37.20
75500;DHT22;64076;51.466;7.260;2022-12-07T05:10:58;20.20;37.20
75500;DHT22;64076;51.466;7.260;2022-12-07T05:13:23;20.20;37.10
75500;DHT22;64076;51.466;7.260;2022-12-07T05:15:49;20.20;37.10
75500;DHT22;64076;51.466;7.260;2022-12-07T05:18:15;20.20;37.20
75500;DHT22;64076;51.466;7.260;2022-12-07T05:20:41;20.20;37.20
75500;DHT22;64076;51.466;7.260;2022-12-07T05:23:07;20.20;37.20
75500;DHT22;64076;51.466;7.260;2022-12-07T05:25:33;20.20;37.20
75500;DHT22;64076;51.466;7.260;2022-12-07T05:27:59;20.20;37.10
75500;DHT22;64076;51.466;7.260;2022-12-07T05:30:25;20.20;37.10
75500;DHT22;64076;51.466;7.260;2022-12-07T05:32:51;20.20;37.10
75500;DHT22;64076;51.466;7.260;2022-12-07T05:35:18;20.20;37.20
75500;DHT22;64076;51.466;7.260;2022-12-07T05:37:44;20.20;37.10
75500;DHT22;64076;51.466;7.260;2022-12-07T05:40:11;20.20;37.10
75500;DHT22;64076;51.466;7.260;2022-12-07T05:42:37;20.20;37.20
75500;DHT22;64076;51.466;7.260;2022-12-07T05:45:03;20.20;37.20
75500;DHT22;64076;51.466;7.260;2022-12-07T05:47:29;20.20;37.20
75500;DHT22;64076;51.466;7.260;2022-12-07T05:49:54;20.20;37.20
75500;DHT22;64076;51.466;7.260;2022-12-07T05:52:20;20.20;37.10
75500;DHT22;64076;51.466;7.260;2022-12-07T05:54:46;20.20;37.20
75500;DHT22;64076;51.466;7.260;2022-12-07T05:57:11;20.20;37.10
75500;DHT22;64076;51.466;7.260;2022-12-07T05:59:37;20.20;37.20
75500;DHT22;64076;51.466;7.260;2022-12-07T06:02:06;20.20;37.20
75500;DHT22;64076;51.466;7.260;2022-12-07T06:04:34;20.20;37.20
75500;DHT22;64076;51.466;7.260;2022-12-07T06:07:00;20.20;37.20
75500;DHT22;64076;51.466;7.260;2022-12-07T06:09:27;20.20;37.20
75500;DHT22;64076;51.466;7.260;2022-12-07T06:11:54;20.20;37.20
75500;DHT22;64076;51.466;7.260;2022-12-07T06:14:38;20.20;37.20
75500;DHT22;64076;51.466;7.260;2022-12-07T06:17:05;20.10;37.20
75500;DHT22;64076;51.466;7.260;2022-12-07T06:19:30;20.10;37.10
75500;DHT22;64076;51.466;7.260;2022-12-07T06:21:56;20.00;37.20
75500;DHT22;64076;51.466;7.260;2022-12-07T06:24:22;20.10;37.10
75500;DHT22;64076;51.466;7.260;2022-12-07T06:26:48;20.20;36.90
75500;DHT22;64076;51.466;7.260;2022-12-07T06:29:14;20.20;36.80
75500;DHT22;64076;51.466;7.260;2022-12-07T06:31:40;20.30;36.60
75500;DHT22;64076;51.466;7.260;2022-12-07T06:34:09;20.30;36.60
75500;DHT22;64076;51.466;7.260;2022-12-07T06:36:35;20.40;36.50
75500;DHT22;64076;51.466;7.260;2022-12-07T06:39:01;20.40;36.40
75500;DHT22;64076;51.466;7.260;2022-12-07T06:41:26;20.40;36.40
75500;DHT22;64076;51.466;7.260;2022-12-07T06:43:52;20.40;36.40
75500;DHT22;64076;51.466;7.260;2022-12-07T06:46:18;20.40;36.40
75500;DHT22;64076;51.466;7.260;2022-12-07T06:48:44;20.40;36.30
75500;DHT22;64076;51.466;7.260;2022-12-07T06:51:10;20.40;36.30
75500;DHT22;64076;51.466;7.260;2022-12-07T06:53:35;20.30;36.30
75500;DHT22;64076;51.466;7.260;2022-12-07T06:56:01;20.30;36.40
75500;DHT22;64076;51.466;7.260;2022-12-07T06:58:27;20.30;36.20
75500;DHT22;64076;51.466;7.260;2022-12-07T07:00:53;20.40;36.10
75500;DHT22;64076;51.466;7.260;2022-12-07T07:03:18;20.40;36.10
75500;DHT22;64076;51.466;7.260;2022-12-07T07:05:44;20.40;36.10
75500;DHT22;64076;51.466;7.260;2022-12-07T07:08:10;20.40;36.10
75500;DHT22;64076;51.466;7.260;2022-12-07T07:10:36;20.40;36.00
75500;DHT22;64076;51.466;7.260;2022-12-07T07:13:02;20.40;36.10
75500;DHT22;64076;51.466;7.260;2022-12-07T07:15:27;20.50;36.00
75500;DHT22;64076;51.466;7.260;2022-12-07T07:17:53;20.50;35.90
75500;DHT22;64076;51.466;7.260;2022-12-07T07:20:19;20.50;35.90
75500;DHT22;64076;51.466;7.260;2022-12-07T07:22:45;20.60;35.80
75500;DHT22;64076;51.466;7.260;2022-12-07T07:25:10;20.60;35.70
75500;DHT22;64076;51.466;7.260;2022-12-07T07:27:36;20.60;35.70
75500;DHT22;64076;51.466;7.260;2022-12-07T07:30:01;20.60;35.70
75500;DHT22;64076;51.466;7.260;2022-12-07T07:32:27;20.60;35.70
75500;DHT22;64076;51.466;7.260;2022-12-07T07:34:53;20.60;35.70
75500;DHT22;64076;51.466;7.260;2022-12-07T07:37:18;20.60;35.70
75500;DHT22;64076;51.466;7.260;2022-12-07T07:39:44;20.70;35.60
75500;DHT22;64076;51.466;7.260;2022-12-07T07:42:09;20.70;35.60
75500;DHT22;64076;51.466;7.260;2022-12-07T07:44:35;20.70;35.80
75500;DHT22;64076;51.466;7.260;2022-12-07T07:47:00;20.70;35.70
75500;DHT22;64076;51.466;7.260;2022-12-07T07:49:26;20.70;35.70
75500;DHT22;64076;51.466;7.260;2022-12-07T07:51:52;20.70;35.70
75500;DHT22;64076;51.466;7.260;2022-12-07T07:54:17;20.80;35.60
75500;DHT22;64076;51.466;7.260;2022-12-07T07:56:43;20.80;35.60
75500;DHT22;64076;51.466;7.260;2022-12-07T07:59:08;20.80;35.50
75500;DHT22;64076;51.466;7.260;2022-12-07T08:01:34;20.80;35.60
75500;DHT22;64076;51.466;7.260;2022-12-07T08:04:00;20.80;35.60
75500;DHT22;64076;51.466;7.260;2022-12-07T08:06:25;20.80;35.60
75500;DHT22;64076;51.466;7.260;2022-12-07T08:08:51;20.70;35.60
75500;DHT22;64076;51.466;7.260;2022-12-07T08:11:17;20.70;35.60
75500;DHT22;64076;51.466;7.260;2022-12-07T08:13:45;20.80;35.50
75500;DHT22;64076;51.466;7.260;2022-12-07T08:16:12;20.80;35.50
75500;DHT22;64076;51.466;7.260;2022-12-07T08:18:39;20.80;35.50
75500;DHT22;64076;51.466;7.260;2022-12-07T08:21:06;20.80;35.50
75500;DHT22;64076;51.466;7.260;2022-12-07T08:23:32;20.70;35.50
75500;DHT22;64076;51.466;7.260;2022-12-07T08:26:04;20.80;35.50
75500;DHT22;64076;51.466;7.260;2022-12-07T08:28:30;20.80;35.60
75500;DHT22;64076;51.466;7.260;2022-12-07T08:31:04;20.70;35.60
75500;DHT22;64076;51.466;7.260;2022-12-07T08:33:31;20.80;35.60
75500;DHT22;64076;51.466;7.260;2022-12-07T08:36:08;20.80;35.60
75500;DHT22;64076;51.466;7.260;2022-12-07T08:38:38;20.80;35.60
75500;DHT22;64076;51.466;7.260;2022-12-07T08:41:04;20.80;35.50
75500;DHT22;64076;51.466;7.260;2022-12-07T08:43:31;20.80;35.50
75500;DHT22;64076;51.466;7.260;2022-12-07T08:46:20;20.80;35.50
75500;DHT22;64076;51.466;7.260;2022-12-07T08:48:53;20.90;35.40
75500;DHT22;64076;51.466;7.260;2022-12-07T08:51:21;20.80;35.50
75500;DHT22;64076;51.466;7.260;2022-12-07T08:53:47;20.80;35.60
75500;DHT22;64076;51.466;7.260;2022-12-07T08:56:13;20.80;35.60
75500;DHT22;64076;51.466;7.260;2022-12-07T08:58:39;20.80;35.60
75500;DHT22;64076;51.466;7.260;2022-12-07T09:01:05;20.80;35.60
75500;DHT22;64076;51.466;7.260;2022-12-07T09:03:31;20.80;35.60
75500;DHT22;64076;51.466;7.260;2022-12-07T09:05:57;20.80;35.60
75500;DHT22;64076;51.466;7.260;2022-12-07T09:08:29;20.90;35.60
75500;DHT22;64076;51.466;7.260;2022-12-07T09:10:56;20.90;35.60
75500;DHT22;64076;51.466;7.260;2022-12-07T09:13:21;20.90;35.60
75500;DHT22;64076;51.466;7.260;2022-12-07T09:15:47;20.90;35.50
75500;DHT22;64076;51.466;7.260;2022-12-07T09:18:13;20.90;35.50
75500;DHT22;64076;51.466;7.260;2022-12-07T09:20:39;20.90;35.50
75500;DHT22;64076;51.466;7.260;2022-12-07T09:23:06;20.90;35.50
75500;DHT22;64076;51.466;7.260;2022-12-07T09:25:33;20.90;35.50
75500;DHT22;64076;51.466;7.260;2022-12-07T09:27:58;20.90;35.50
75500;DHT22;64076;51.466;7.260;2022-12-07T09:30:25;21.10;35.50
75500;DHT22;64076;51.466;7.260;2022-12-07T09:32:56;21.20;35.60
75500;DHT22;64076;51.466;7.260;2022-12-07T09:35:22;21.30;35.50
75500;DHT22;64076;51.466;7.260;2022-12-07T09:37:48;21.30;35.50
75500;DHT22;64076;51.466;7.260;2022-12-07T09:40:15;21.20;35.50
75500;DHT22;64076;51.466;7.260;2022-12-07T09:42:44;21.20;35.40
75500;DHT22;64076;51.466;7.260;2022-12-07T09:45:21;21.20;35.40
75500;DHT22;64076;51.466;7.260;2022-12-07T09:47:46;21.20;35.50
75500;DHT22;64076;51.466;7.260;2022-12-07T09:50:18;21.20;35.50
75500;DHT22;64076;51.466;7.260;2022-12-07T09:52:45;21.10;35.50
75500;DHT22;64076;51.466;7.260;2022-12-07T09:55:16;21.10;35.40
75500;DHT22;64076;51.466;7.260;2022-12-07T09:57:43;21.10;35.50
75500;DHT22;64076;51.466;7.260;2022-12-07T10:00:20;21.10;35.50
75500;DHT22;64076;51.466;7.260;2022-12-07T10:05:26;21.10;35.60
75500;DHT22;64076;51.466;7.260;2022-12-07T10:07:53;21.10;35.60
75500;DHT22;64076;51.466;7.260;2022-12-07T10:10:35;21.10;35.40
75500;DHT22;64076;51.466;7.260;2022-12-07T10:13:15;21.10;35.60
75500;DHT22;64076;51.466;7.260;2022-12-07T10:15:54;21.10;35.60
75500;DHT22;64076;51.466;7.260;2022-12-07T10:18:26;21.00;35.60
75500;DHT22;64076;51.466;7.260;2022-12-07T10:21:12;21.00;35.60
75500;DHT22;64076;51.466;7.260;2022-12-07T10:24:03;21.00;35.60
75500;DHT22;64076;51.466;7.260;2022-12-07T10:26:35;21.00;35.70
75500;DHT22;64076;51.466;7.260;2022-12-07T10:29:23;21.00;35.50
75500;DHT22;64076;51.466;7.260;2022-12-07T10:31:59;20.90;35.60
75500;DHT22;64076;51.466;7.260;2022-12-07T10:34:28;20.90;35.60
75500;DHT22;64076;51.466;7.260;2022-12-07T10:39:45;20.80;35.80
75500;DHT22;64076;51.466;7.260;2022-12-07T10:44:42;20.80;35.70
75500;DHT22;64076;51.466;7.260;2022-12-07T10:52:45;20.80;35.70
75500;DHT22;64076;51.466;7.260;2022-12-07T11:06:39;20.90;35.70
75500;DHT22;64076;51.466;7.260;2022-12-07T11:12:04;20.90;35.70
75500;DHT22;64076;51.466;7.260;2022-12-07T11:14:40;20.90;35.60
75500;DHT22;64076;51.466;7.260;2022-12-07T11:17:42;20.90;35.60
75500;DHT22;64076;51.466;7.260;2022-12-07T11:20:48;20.90;35.60
75500;DHT22;64076;51.466;7.260;2022-12-07T11:26:02;20.90;35.70
75500;DHT22;64076;51.466;7.260;2022-12-07T11:31:18;21.00;35.50
75500;DHT22;64076;51.466;7.260;2022-12-07T11:34:01;21.00;35.50
75500;DHT22;64076;51.466;7.260;2022-12-07T11:36:52;21.00;35.50
75500;DHT22;64076;51.466;7.260;2022-12-07T11:39:30;21.00;35.50
75500;DHT22;64076;51.466;7.260;2022-12-07T11:42:14;21.00;35.40
75500;DHT22;64076;51.466;7.260;2022-12-07T11:44:57;21.00;35.40
75500;DHT22;64076;51.466;7.260;2022-12-07T11:47:45;21.00;35.40
75500;DHT22;64076;51.466;7.260;2022-12-07T11:50:48;21.00;35.40
75500;DHT22;64076;51.466;7.260;2022-12-07T11:55:57;21.00;35.30
75500;DHT22;64076;51.466;7.260;2022-12-07T12:01:14;21.10;35.20
75500;DHT22;64076;51.466;7.260;2022-12-07T12:03:52;21.10;35.20
75500;DHT22;64076;51.466;7.260;2022-12-07T12:06:19;21.10;35.10
75500;DHT22;64076;51.466;7.260;2022-12-07T12:09:03;21.20;35.10
75500;DHT22;64076;51.466;7.260;2022-12-07T12:17:31;21.30;34.90
75500;DHT22;64076;51.466;7.260;2022-12-07T12:22:34;21.20;34.90
75500;DHT22;64076;51.466;7.260;2022-12-07T12:25:05;21.10;34.80
75500;DHT22;64076;51.466;7.260;2022-12-07T12:27:33;21.10;34.80
75500;DHT22;64076;51.466;7.260;2022-12-07T12:30:39;21.10;34.70
75500;DHT22;64076;51.466;7.260;2022-12-07T12:33:20;21.20;34.60
75500;DHT22;64076;51.466;7.260;2022-12-07T12:46:58;21.10;34.40
75500;DHT22;64076;51.466;7.260;2022-12-07T12:51:55;21.20;34.40
75500;DHT22;64076;51.466;7.260;2022-12-07T12:54:29;21.20;34.30
75500;DHT22;64076;51.466;7.260;2022-12-07T13:10:34;21.20;34.20
75500;DHT22;64076;51.466;7.260;2022-12-07T13:18:23;21.20;34.10
75500;DHT22;64076;51.466;7.260;2022-12-07T13:29:17;21.20;34.10
75500;DHT22;64076;51.466;7.260;2022-12-07T13:31:50;21.20;34.20
75500;DHT22;64076;51.466;7.260;2022-12-07T13:39:45;21.20;34.30
75500;DHT22;64076;51.466;7.260;2022-12-07T13:42:25;21.20;34.30
75500;DHT22;64076;51.466;7.260;2022-12-07T13:44:54;21.20;34.40
75500;DHT22;64076;51.466;7.260;2022-12-07T13:47:52;21.10;34.40
75500;DHT22;64076;51.466;7.260;2022-12-07T13:50:39;21.10;34.50
75500;DHT22;64076;51.466;7.260;2022-12-07T13:53:12;21.20;34.50
75500;DHT22;64076;51.466;7.260;2022-12-07T13:55:44;21.10;34.50
75500;DHT22;64076;51.466;7.260;2022-12-07T13:58:10;21.10;34.60
75500;DHT22;64076;51.466;7.260;2022-12-07T14:00:36;21.10;34.50
75500;DHT22;64076;51.466;7.260;2022-12-07T14:03:19;21.20;34.50
75500;DHT22;64076;51.466;7.260;2022-12-07T14:08:47;21.20;34.60
75500;DHT22;64076;51.466;7.260;2022-12-07T14:11:17;21.10;34.60
75500;DHT22;64076;51.466;7.260;2022-12-07T14:13:56;21.20;34.70
75500;DHT22;64076;51.466;7.260;2022-12-07T14:18:51;21.10;34.70
75500;DHT22;64076;51.466;7.260;2022-12-07T14:21:21;21.20;34.70
75500;DHT22;64076;51.466;7.260;2022-12-07T14:24:11;21.10;34.60
75500;DHT22;64076;51.466;7.260;2022-12-07T14:26:38;21.10;34.60
75500;DHT22;64076;51.466;7.260;2022-12-07T14:31:57;21.10;34.50
75500;DHT22;64076;51.466;7.260;2022-12-07T14:34:23;21.10;34.50
75500;DHT22;64076;51.466;7.260;2022-12-07T14:36:49;21.10;34.50
75500;DHT22;64076;51.466;7.260;2022-12-07T14:39:15;21.10;34.40
75500;DHT22;64076;51.466;7.260;2022-12-07T14:41:43;21.10;34.50
75500;DHT22;64076;51.466;7.260;2022-12-07T14:44:22;21.10;34.50
75500;DHT22;64076;51.466;7.260;2022-12-07T14:46:49;21.10;34.40
75500;DHT22;64076;51.466;7.260;2022-12-07T14:49:15;21.10;34.50
75500;DHT22;64076;51.466;7.260;2022-12-07T14:51:42;21.10;34.40
75500;DHT22;64076;51.466;7.260;2022-12-07T14:54:16;21.10;34.40
75500;DHT22;64076;51.466;7.260;2022-12-07T14:56:43;21.10;34.40
75500;DHT22;64076;51.466;7.260;2022-12-07T14:59:10;21.10;34.40
75500;DHT22;64076;51.466;7.260;2022-12-07T15:01:36;21.20;34.40
75500;DHT22;64076;51.466;7.260;2022-12-07T15:04:01;21.20;34.40
75500;DHT22;64076;51.466;7.260;2022-12-07T15:06:27;21.20;34.40
75500;DHT22;64076;51.466;7.260;2022-12-07T15:08:52;21.20;34.50
75500;DHT22;64076;51.466;7.260;2022-12-07T15:11:18;21.20;34.40
75500;DHT22;64076;51.466;7.260;2022-12-07T15:13:44;21.20;34.40
75500;DHT22;64076;51.466;7.260;2022-12-07T15:16:28;21.30;34.50
75500;DHT22;64076;51.466;7.260;2022-12-07T15:18:54;21.20;34.50
75500;DHT22;64076;51.466;7.260;2022-12-07T15:21:19;21.30;34.60
75500;DHT22;64076;51.466;7.260;2022-12-07T15:23:46;21.30;34.50
75500;DHT22;64076;51.466;7.260;2022-12-07T15:26:13;21.30;34.60
75500;DHT22;64076;51.466;7.260;2022-12-07T15:28:40;21.30;34.50
75500;DHT22;64076;51.466;7.260;2022-12-07T15:31:16;21.30;34.60
75500;DHT22;64076;51.466;7.260;2022-12-07T15:33:43;21.30;34.50
75500;DHT22;64076;51.466;7.260;2022-12-07T15:36:23;21.30;34.60
75500;DHT22;64076;51.466;7.260;2022-12-07T15:38:49;21.30;34.60
75500;DHT22;64076;51.466;7.260;2022-12-07T15:41:15;21.30;34.60
75500;DHT22;64076;51.466;7.260;2022-12-07T15:43:40;21.30;34.60
75500;DHT22;64076;51.466;7.260;2022-12-07T15:46:36;21.30;34.50
75500;DHT22;64076;51.466;7.260;2022-12-07T15:49:03;21.40;34.60
75500;DHT22;64076;51.466;7.260;2022-12-07T15:51:29;21.30;34.50
75500;DHT22;64076;51.466;7.260;2022-12-07T15:53:57;21.30;34.50
75500;DHT22;64076;51.466;7.260;2022-12-07T15:56:23;21.40;34.50
75500;DHT22;64076;51.466;7.260;2022-12-07T15:58:48;21.40;34.50
75500;DHT22;64076;51.466;7.260;2022-12-07T16:01:17;21.40;34.50
75500;DHT22;64076;51.466;7.260;2022-12-07T16:03:43;21.40;34.50
75500;DHT22;64076;51.466;7.260;2022-12-07T16:06:09;21.30;34.50
75500;DHT22;64076;51.466;7.260;2022-12-07T16:08:35;21.40;34.50
75500;DHT22;64076;51.466;7.260;2022-12-07T16:11:05;21.40;34.50
75500;DHT22;64076;51.466;7.260;2022-12-07T16:13:31;21.30;34.50
75500;DHT22;64076;51.466;7.260;2022-12-07T16:15:56;21.30;34.50
75500;DHT22;64076;51.466;7.260;2022-12-07T16:18:22;21.40;34.50
75500;DHT22;64076;51.466;7.260;2022-12-07T16:20:48;21.40;34.50
75500;DHT22;64076;51.466;7.260;2022-12-07T16:23:14;21.30;34.50
75500;DHT22;64076;51.466;7.260;2022-12-07T16:25:40;21.30;34.50
75500;DHT22;64076;51.466;7.260;2022-12-07T16:28:06;21.30;34.50
75500;DHT22;64076;51.466;7.260;2022-12-07T16:30:33;21.30;34.60
75500;DHT22;64076;51.466;7.260;2022-12-07T16:32:58;21.30;34.60
75500;DHT22;64076;51.466;7.260;2022-12-07T16:35:24;21.30;34.60
75500;DHT22;64076;51.466;7.260;2022-12-07T16:37:50;21.30;34.60
75500;DHT22;64076;51.466;7.260;2022-12-07T16:40:15;21.20;34.60
75500;DHT22;64076;51.466;7.260;2022-12-07T16:42:41;21.20;34.60
75500;DHT22;64076;51.466;7.260;2022-12-07T16:45:06;21.20;34.60
75500;DHT22;64076;51.466;7.260;2022-12-07T16:47:32;21.20;34.60
75500;DHT22;64076;51.466;7.260;2022-12-07T16:49:58;21.20;34.60
75500;DHT22;64076;51.466;7.260;2022-12-07T16:52:23;21.20;34.60
75500;DHT22;64076;51.466;7.260;2022-12-07T16:54:49;21.20;34.70
75500;DHT22;64076;51.466;7.260;2022-12-07T16:57:16;21.20;34.60
75500;DHT22;64076;51.466;7.260;2022-12-07T16:59:42;21.20;34.70
75500;DHT22;64076;51.466;7.260;2022-12-07T17:02:11;21.20;34.60
75500;DHT22;64076;51.466;7.260;2022-12-07T17:04:36;21.20;34.70
75500;DHT22;64076;51.466;7.260;2022-12-07T17:07:08;21.10;34.70
75500;DHT22;64076;51.466;7.260;2022-12-07T17:09:33;21.20;34.70
75500;DHT22;64076;51.466;7.260;2022-12-07T17:12:00;21.10;34.70
75500;DHT22;64076;51.466;7.260;2022-12-07T17:14:26;21.10;34.80
75500;DHT22;64076;51.466;7.260;2022-12-07T17:17:10;21.00;34.80
75500;DHT22;64076;51.466;7.260;2022-12-07T17:19:35;21.00;34.90
75500;DHT22;64076;51.466;7.260;2022-12-07T17:22:04;21.00;34.90
75500;DHT22;64076;51.466;7.260;2022-12-07T17:24:29;21.00;35.00
75500;DHT22;64076;51.466;7.260;2022-12-07T17:26:55;20.90;35.00
75500;DHT22;64076;51.466;7.260;2022-12-07T17:29:21;20.90;35.10
75500;DHT22;64076;51.466;7.260;2022-12-07T17:31:47;20.90;35.10
75500;DHT22;64076;51.466;7.260;2022-12-07T17:34:14;20.80;35.20
75500;DHT22;64076;51.466;7.260;2022-12-07T17:36:40;20.80;35.30
75500;DHT22;64076;51.466;7.260;2022-12-07T17:39:10;20.70;35.30
75500;DHT22;64076;51.466;7.260;2022-12-07T17:41:37;20.70;35.30
75500;DHT22;64076;51.466;7.260;2022-12-07T17:44:22;20.70;35.30
75500;DHT22;64076;51.466;7.260;2022-12-07T17:46:51;20.70;35.40
75500;DHT22;64076;51.466;7.260;2022-12-07T17:49:22;20.70;35.40
75500;DHT22;64076;51.466;7.260;2022-12-07T17:51:48;20.60;35.40
75500;DHT22;64076;51.466;7.260;2022-12-07T17:54:32;20.60;35.50
75500;DHT22;64076;51.466;7.260;2022-12-07T17:56:57;20.60;35.50